createdAt,value
2017-09-13T00:01:28.269Z,21.70
2017-09-13T00:03:55.419Z,21.77
2017-09-13T00:06:21.854Z,21.81
2017-09-13T00:08:48.290Z,21.84
2017-09-13T00:11:14.723Z,21.85
2017-09-13T00:13:41.159Z,21.81
2017-09-13T00:16:07.696Z,21.77
2017-09-13T00:18:34.131Z,21.73
2017-09-13T00:21:01.231Z,21.66
2017-09-13T00:23:27.714Z,21.62
2017-09-13T00:25:54.098Z,21.54
2017-09-13T00:28:20.449Z,21.23
2017-09-13T00:30:46.917Z,21.40
2017-09-13T00:33:13.355Z,21.22
2017-09-13T00:35:39.791Z,21.23
2017-09-13T00:38:06.943Z,21.11
2017-09-13T00:40:33.479Z,21.05
2017-09-13T00:42:59.913Z,21.08
2017-09-13T00:45:26.299Z,21.07
2017-09-13T00:47:52.764Z,21.11
2017-09-13T00:50:19.218Z,21.12
2017-09-13T00:52:45.672Z,21.18
2017-09-13T00:55:12.804Z,21.23
2017-09-13T00:57:39.261Z,21.23
2017-09-13T01:00:05.655Z,21.12
2017-09-13T01:02:32.110Z,21.02
2017-09-13T01:04:58.545Z,21.04
2017-09-13T01:07:25.001Z,21.02
2017-09-13T01:09:51.414Z,20.98
2017-09-13T01:12:18.566Z,20.99
2017-09-13T01:14:45.003Z,20.85
2017-09-13T01:17:11.436Z,20.83
2017-09-13T01:19:37.870Z,20.85
2017-09-13T01:22:04.308Z,20.88
2017-09-13T01:24:30.742Z,20.90
2017-09-13T01:26:57.196Z,20.87
2017-09-13T01:29:24.310Z,20.85
2017-09-13T01:31:50.761Z,20.82
2017-09-13T01:34:17.198Z,20.89
2017-09-13T01:36:43.734Z,20.88
2017-09-13T01:39:10.169Z,20.85
2017-09-13T01:41:36.604Z,20.78
2017-09-13T01:44:02.962Z,20.78
2017-09-13T01:46:30.164Z,20.81
2017-09-13T01:48:56.627Z,20.88
2017-09-13T01:51:23.025Z,20.95
2017-09-13T01:53:49.495Z,20.95
2017-09-13T01:56:15.930Z,20.91
2017-09-13T01:58:42.315Z,20.70
2017-09-13T02:01:08.798Z,20.53
2017-09-13T02:03:35.953Z,20.45
2017-09-13T02:06:02.338Z,20.40
2017-09-13T02:08:28.742Z,20.43
2017-09-13T02:10:55.155Z,20.45
2017-09-13T02:13:21.589Z,20.56
2017-09-13T02:15:47.971Z,20.52
2017-09-13T02:18:14.406Z,20.41
2017-09-13T02:20:41.509Z,20.37
2017-09-13T02:23:07.965Z,20.36
2017-09-13T02:25:34.489Z,20.37
2017-09-13T02:28:00.915Z,20.34
2017-09-13T02:30:27.351Z,20.29
2017-09-13T02:32:53.789Z,20.27
2017-09-13T02:35:20.277Z,20.27
2017-09-13T02:37:47.372Z,20.34
2017-09-13T02:40:13.808Z,20.36
2017-09-13T02:42:40.192Z,20.52
2017-09-13T02:45:06.665Z,20.56
2017-09-13T02:47:33.122Z,20.53
2017-09-13T02:49:59.568Z,20.50
2017-09-13T02:52:26.085Z,20.57
2017-09-13T02:54:53.237Z,20.63
2017-09-13T02:57:19.773Z,20.64
2017-09-13T02:59:46.311Z,20.52
2017-09-13T03:02:12.691Z,20.49
2017-09-13T03:04:39.154Z,20.32
2017-09-13T03:07:05.615Z,20.29
2017-09-13T03:09:32.050Z,20.45
2017-09-13T03:11:59.201Z,20.52
2017-09-13T03:14:25.625Z,20.58
2017-09-13T03:16:52.069Z,20.28
2017-09-13T03:19:18.507Z,20.36
2017-09-13T03:21:44.941Z,20.31
2017-09-13T03:24:11.378Z,20.29
2017-09-13T03:26:37.759Z,20.29
2017-09-13T03:29:05.065Z,20.40
2017-09-13T03:31:31.462Z,20.59
2017-09-13T03:33:57.833Z,20.63
2017-09-13T03:36:24.267Z,20.73
2017-09-13T03:38:50.703Z,20.87
2017-09-13T03:41:17.138Z,20.94
2017-09-13T03:43:43.572Z,20.99
2017-09-13T03:46:10.826Z,20.99
2017-09-13T03:48:37.261Z,20.93
2017-09-13T03:51:03.696Z,20.78
2017-09-13T03:53:30.130Z,20.65
2017-09-13T03:55:56.480Z,20.66
2017-09-13T03:58:22.995Z,20.71
2017-09-13T04:00:49.541Z,20.84
2017-09-13T04:03:16.579Z,20.95
2017-09-13T04:05:42.971Z,21.02
2017-09-13T04:08:09.457Z,21.07
2017-09-13T04:10:35.895Z,21.07
2017-09-13T04:13:02.349Z,21.07
2017-09-13T04:15:28.966Z,20.84
2017-09-13T04:17:55.404Z,21.15
2017-09-13T04:20:21.856Z,21.08
2017-09-13T04:22:48.245Z,21.07
2017-09-13T04:25:14.688Z,21.15
2017-09-13T04:27:41.132Z,21.20
2017-09-13T04:30:07.583Z,21.21
2017-09-13T04:32:34.014Z,21.11
2017-09-13T04:35:00.445Z,21.02
2017-09-13T04:37:27.597Z,21.08
2017-09-13T04:39:54.033Z,20.93
2017-09-13T04:42:20.467Z,20.91
2017-09-13T04:44:46.902Z,21.01
2017-09-13T04:47:13.337Z,21.04
2017-09-13T04:49:39.790Z,21.15
2017-09-13T04:52:06.207Z,21.34
2017-09-13T04:54:33.461Z,21.50
2017-09-13T04:56:59.896Z,21.58
2017-09-13T04:59:26.331Z,21.69
2017-09-13T05:01:52.773Z,21.84
2017-09-13T05:04:19.156Z,21.96
2017-09-13T05:06:45.635Z,22.11
2017-09-13T05:09:12.071Z,22.13
2017-09-13T05:11:39.324Z,22.18
2017-09-13T05:14:05.759Z,22.24
2017-09-13T05:16:32.194Z,22.29
2017-09-13T05:18:58.626Z,22.40
2017-09-13T05:21:25.026Z,22.44
2017-09-13T05:23:51.487Z,22.47
2017-09-13T05:26:17.929Z,22.42
2017-09-13T05:28:45.085Z,22.63
2017-09-13T05:31:11.515Z,22.74
2017-09-13T05:33:37.955Z,22.86
2017-09-13T05:36:04.390Z,22.93
2017-09-13T05:38:30.825Z,22.97
2017-09-13T05:40:57.260Z,23.02
2017-09-13T05:43:23.696Z,23.08
2017-09-13T05:45:50.951Z,23.14
2017-09-13T05:48:17.383Z,23.14
2017-09-13T05:50:43.767Z,23.04
2017-09-13T05:53:10.253Z,23.15
2017-09-13T05:55:36.689Z,23.15
2017-09-13T05:58:03.534Z,23.27
2017-09-13T06:00:29.956Z,23.42
2017-09-13T06:02:56.351Z,23.58
2017-09-13T06:05:22.813Z,23.72
2017-09-13T06:07:49.256Z,23.98
2017-09-13T06:10:15.763Z,24.15
2017-09-13T06:12:42.201Z,24.34
2017-09-13T06:15:08.659Z,24.59
2017-09-13T06:17:35.319Z,24.95
2017-09-13T06:20:01.754Z,25.13
2017-09-13T06:22:28.189Z,25.37
2017-09-13T06:24:54.581Z,25.50
2017-09-13T06:27:21.051Z,25.50
2017-09-13T06:29:47.593Z,25.47
2017-09-13T06:32:14.033Z,25.43
2017-09-13T06:34:40.570Z,25.38
2017-09-13T06:37:07.252Z,25.26
2017-09-13T06:39:33.847Z,25.30
2017-09-13T06:42:00.245Z,25.38
2017-09-13T06:44:27.036Z,25.43
2017-09-13T06:46:53.461Z,25.47
2017-09-13T06:49:19.859Z,25.48
2017-09-13T06:51:46.534Z,25.58
2017-09-13T06:54:12.972Z,25.58
2017-09-13T06:56:39.404Z,25.51
2017-09-13T06:59:06.044Z,25.42
2017-09-13T07:01:32.420Z,25.37
2017-09-13T07:03:58.913Z,25.44
2017-09-13T07:06:25.374Z,25.57
2017-09-13T07:08:51.885Z,25.63
2017-09-13T07:11:18.383Z,25.73
2017-09-13T07:13:45.060Z,25.64
2017-09-13T07:16:11.495Z,25.57
2017-09-13T07:18:38.033Z,25.58
2017-09-13T07:21:04.670Z,25.66
2017-09-13T07:23:31.107Z,25.66
2017-09-13T07:25:57.644Z,25.91
2017-09-13T07:28:24.235Z,26.01
2017-09-13T07:30:50.679Z,26.16
2017-09-13T07:33:18.178Z,26.40
2017-09-13T07:35:44.612Z,26.52
2017-09-13T07:38:11.047Z,26.71
2017-09-13T07:40:37.892Z,26.85
2017-09-13T07:43:04.328Z,27.01
2017-09-13T07:45:30.717Z,27.16
2017-09-13T07:47:57.307Z,27.28
2017-09-13T07:50:23.834Z,27.34
2017-09-13T07:52:50.269Z,27.55
2017-09-13T07:55:17.092Z,27.50
2017-09-13T07:57:43.655Z,27.68
2017-09-13T08:00:10.700Z,27.48
2017-09-13T08:02:38.371Z,27.28
2017-09-13T08:05:04.964Z,27.36
2017-09-13T08:07:31.545Z,27.28
2017-09-13T08:09:58.100Z,27.57
2017-09-13T08:12:24.466Z,27.57
2017-09-13T08:14:50.846Z,27.64
2017-09-13T08:17:18.418Z,27.44
2017-09-13T08:19:45.150Z,27.57
2017-09-13T08:22:11.599Z,27.75
2017-09-13T08:24:38.487Z,27.53
2017-09-13T08:27:05.070Z,27.37
2017-09-13T08:29:31.591Z,27.15
2017-09-13T08:31:58.351Z,27.19
2017-09-13T08:34:24.885Z,27.36
2017-09-13T08:36:51.320Z,27.52
2017-09-13T08:39:18.373Z,27.47
2017-09-13T08:41:45.234Z,27.62
2017-09-13T08:44:11.751Z,27.66
2017-09-13T08:46:38.341Z,27.74
2017-09-13T08:49:04.959Z,27.85
2017-09-13T08:51:31.620Z,27.80
2017-09-13T08:53:58.518Z,27.77
2017-09-13T08:56:25.154Z,27.79
2017-09-13T08:58:51.692Z,27.59
2017-09-13T09:01:19.123Z,27.76
2017-09-13T09:03:45.689Z,27.74
2017-09-13T09:06:12.132Z,27.96
2017-09-13T09:08:39.583Z,28.06
2017-09-13T09:11:06.018Z,27.97
2017-09-13T09:13:32.451Z,28.01
2017-09-13T09:15:59.657Z,28.13
2017-09-13T09:18:26.141Z,28.14
2017-09-13T09:20:52.986Z,28.09
2017-09-13T09:23:19.932Z,28.29
2017-09-13T09:25:46.376Z,28.14
2017-09-13T09:28:13.225Z,28.32
2017-09-13T09:30:40.056Z,28.36
2017-09-13T09:33:06.595Z,28.44
2017-09-13T09:35:33.201Z,28.55
2017-09-13T09:37:59.770Z,28.69
2017-09-13T09:40:26.211Z,28.78
2017-09-13T09:42:53.152Z,28.68
2017-09-13T09:45:19.894Z,28.74
2017-09-13T09:47:46.536Z,28.77
2017-09-13T09:50:13.178Z,28.69
2017-09-13T09:52:40.019Z,28.82
2017-09-13T09:55:06.761Z,28.83
2017-09-13T09:57:33.300Z,28.79
2017-09-13T09:59:59.727Z,28.88
2017-09-13T10:02:26.173Z,28.97
2017-09-13T10:04:52.813Z,28.92
2017-09-13T10:07:19.532Z,28.90
2017-09-13T10:09:46.031Z,29.05
2017-09-13T10:12:12.653Z,29.04
2017-09-13T10:14:39.469Z,29.15
2017-09-13T10:17:06.065Z,29.07
2017-09-13T10:19:32.960Z,29.25
2017-09-13T10:21:59.490Z,29.39
2017-09-13T10:24:26.030Z,29.22
2017-09-13T10:26:52.411Z,29.02
2017-09-13T10:29:19.004Z,29.06
2017-09-13T10:31:45.639Z,28.91
2017-09-13T10:34:12.483Z,28.79
2017-09-13T10:36:39.070Z,28.77
2017-09-13T10:39:05.507Z,28.67
2017-09-13T10:41:31.981Z,28.73
2017-09-13T10:43:58.428Z,28.74
2017-09-13T10:46:24.863Z,28.83
2017-09-13T10:48:51.298Z,28.85
2017-09-13T10:51:17.679Z,28.79
2017-09-13T10:53:44.065Z,28.84
2017-09-13T10:56:10.519Z,29.21
2017-09-13T10:58:37.037Z,29.08
2017-09-13T11:01:03.474Z,29.04
2017-09-13T11:03:29.908Z,29.12
2017-09-13T11:05:56.292Z,29.28
2017-09-13T11:08:22.778Z,29.40
2017-09-13T11:10:49.197Z,29.50
2017-09-13T11:13:16.061Z,29.55
2017-09-13T11:15:42.618Z,29.62
2017-09-13T11:18:09.249Z,29.77
2017-09-13T11:20:35.644Z,29.73
2017-09-13T11:23:02.206Z,30.14
2017-09-13T11:25:28.642Z,30.77
2017-09-13T11:27:55.077Z,30.87
2017-09-13T11:30:21.511Z,30.75
2017-09-13T11:32:48.051Z,31.18
2017-09-13T11:35:14.588Z,31.37
2017-09-13T11:37:41.086Z,31.31
2017-09-13T11:40:07.558Z,31.41
2017-09-13T11:42:34.300Z,32.21
2017-09-13T11:45:00.735Z,32.43
2017-09-13T11:47:27.170Z,33.04
2017-09-13T11:49:54.159Z,33.35
2017-09-13T11:52:20.854Z,33.54
2017-09-13T11:54:47.400Z,33.79
2017-09-13T11:57:14.389Z,34.13
2017-09-13T11:59:40.856Z,33.96
2017-09-13T12:02:08.018Z,33.37
2017-09-13T12:04:34.599Z,33.16
2017-09-13T12:07:01.413Z,32.87
2017-09-13T12:09:27.952Z,33.20
2017-09-13T12:14:27.272Z,34.88
2017-09-13T12:16:53.785Z,35.47
2017-09-13T12:19:20.359Z,35.22
2017-09-13T12:21:47.089Z,34.67
2017-09-13T12:24:13.581Z,34.88
2017-09-13T12:26:40.006Z,35.14
2017-09-13T12:29:06.652Z,34.84
2017-09-13T12:31:33.341Z,33.89
2017-09-13T12:33:59.877Z,33.74
2017-09-13T12:36:26.722Z,33.40
2017-09-13T12:38:53.157Z,33.88
2017-09-13T12:41:19.592Z,35.17
2017-09-13T12:43:46.282Z,36.30
2017-09-13T12:46:13.078Z,36.88
2017-09-13T12:48:39.614Z,36.94
2017-09-13T12:51:06.514Z,36.77
2017-09-13T12:53:32.892Z,36.78
2017-09-13T12:55:59.327Z,37.63
2017-09-13T12:58:25.865Z,38.08
2017-09-13T13:00:52.300Z,38.23
2017-09-13T13:03:19.144Z,37.96
2017-09-13T13:05:45.580Z,37.92
2017-09-13T13:08:12.218Z,38.18
2017-09-13T13:10:38.654Z,37.96
2017-09-13T13:13:05.501Z,38.64
2017-09-13T13:15:32.001Z,39.57
2017-09-13T13:17:58.880Z,39.18
2017-09-13T13:20:25.522Z,38.58
2017-09-13T13:22:51.955Z,37.32
2017-09-13T13:25:18.698Z,36.63
2017-09-13T13:27:45.538Z,36.70
2017-09-13T13:30:11.977Z,36.05
2017-09-13T13:32:38.412Z,35.26
2017-09-13T13:35:05.307Z,34.82
2017-09-13T13:37:32.715Z,33.95
2017-09-13T13:39:59.170Z,33.31
2017-09-13T13:42:26.507Z,32.69
2017-09-13T13:44:52.943Z,32.87
2017-09-13T13:47:19.478Z,33.93
2017-09-13T13:49:45.950Z,34.78
2017-09-13T13:52:12.456Z,35.48
2017-09-13T13:54:39.091Z,35.32
2017-09-13T13:57:05.526Z,35.67
2017-09-13T13:59:31.962Z,36.36
2017-09-13T14:01:58.967Z,36.94
2017-09-13T14:04:25.444Z,37.40
2017-09-13T14:06:51.836Z,36.86
2017-09-13T14:09:18.518Z,37.13
2017-09-13T14:11:45.538Z,37.45
2017-09-13T14:14:12.004Z,36.93
2017-09-13T14:16:38.684Z,35.56
2017-09-13T14:19:05.179Z,34.68
2017-09-13T14:21:31.717Z,34.10
2017-09-13T14:23:58.575Z,33.73
2017-09-13T14:26:24.997Z,33.54
2017-09-13T14:28:51.739Z,32.89
2017-09-13T14:31:18.714Z,32.42
2017-09-13T14:33:45.533Z,32.17
2017-09-13T14:36:11.923Z,31.74
2017-09-13T14:38:38.521Z,31.35
2017-09-13T14:41:05.449Z,31.00
2017-09-13T14:43:31.885Z,30.68
2017-09-13T14:45:58.328Z,30.56
2017-09-13T14:48:25.610Z,30.45
2017-09-13T14:50:52.116Z,30.29
2017-09-13T14:53:18.759Z,30.24
2017-09-13T14:55:45.308Z,30.15
2017-09-13T14:58:12.235Z,30.21
2017-09-13T15:00:38.669Z,30.08
2017-09-13T15:03:05.105Z,30.04
2017-09-13T15:05:31.539Z,29.89
2017-09-13T15:07:57.973Z,29.69
2017-09-13T15:10:24.410Z,29.69
2017-09-13T15:12:50.844Z,29.67
2017-09-13T15:15:17.279Z,29.70
2017-09-13T15:17:43.650Z,29.79
2017-09-13T15:20:10.148Z,29.94
2017-09-13T15:22:36.532Z,29.80
2017-09-13T15:25:02.916Z,29.69
2017-09-13T15:27:29.351Z,29.54
2017-09-13T15:29:56.624Z,29.29
2017-09-13T15:32:23.040Z,29.16
2017-09-13T15:34:49.475Z,29.08
2017-09-13T15:37:15.909Z,28.97
2017-09-13T15:39:46.584Z,28.85
2017-09-13T15:42:24.526Z,28.84
2017-09-13T15:44:58.515Z,28.74
2017-09-13T15:47:31.597Z,28.72
2017-09-13T15:49:58.703Z,28.69
2017-09-13T15:52:25.047Z,28.53
2017-09-13T15:54:51.473Z,28.51
2017-09-13T15:57:17.904Z,28.41
2017-09-13T15:59:44.341Z,28.35
2017-09-13T16:02:10.775Z,28.26
2017-09-13T16:04:37.171Z,28.08
2017-09-13T16:07:03.644Z,28.05
2017-09-13T16:09:30.081Z,27.97
2017-09-13T16:11:56.514Z,27.85
2017-09-13T16:14:23.783Z,27.84
2017-09-13T16:16:50.203Z,27.69
2017-09-13T16:19:16.622Z,27.70
2017-09-13T16:21:43.073Z,27.60
2017-09-13T16:24:09.509Z,27.49
2017-09-13T16:26:35.944Z,27.44
2017-09-13T16:29:02.378Z,27.32
2017-09-13T16:31:29.479Z,27.25
2017-09-13T16:33:55.964Z,27.08
2017-09-13T16:36:22.352Z,27.00
2017-09-13T16:38:48.839Z,26.91
2017-09-13T16:41:15.270Z,26.94
2017-09-13T16:43:41.708Z,26.90
2017-09-13T16:46:08.142Z,26.84
2017-09-13T16:48:35.337Z,26.75
2017-09-13T16:51:01.828Z,26.78
2017-09-13T16:53:28.366Z,26.68
2017-09-13T16:55:54.802Z,26.63
2017-09-13T16:58:21.236Z,26.53
2017-09-13T17:00:47.669Z,26.58
2017-09-13T17:03:14.105Z,26.50
2017-09-13T17:05:41.306Z,26.41
2017-09-13T17:08:07.794Z,26.35
2017-09-13T17:10:34.226Z,26.31
2017-09-13T17:13:00.664Z,26.28
2017-09-13T17:15:27.100Z,26.20
2017-09-13T17:17:53.534Z,26.15
2017-09-13T17:20:19.969Z,26.09
2017-09-13T17:22:47.121Z,26.09
2017-09-13T17:25:13.555Z,26.03
2017-09-13T17:27:39.973Z,25.96
2017-09-13T17:30:06.323Z,25.83
2017-09-13T17:32:32.703Z,25.80
2017-09-13T17:34:59.090Z,25.76
2017-09-13T17:37:25.627Z,25.73
2017-09-13T17:39:52.712Z,25.68
2017-09-13T17:42:19.113Z,25.57
2017-09-13T17:44:45.546Z,25.54
2017-09-13T17:47:11.983Z,25.51
2017-09-13T17:49:38.423Z,25.51
2017-09-13T17:52:04.851Z,25.44
2017-09-13T17:54:31.286Z,25.41
2017-09-13T17:56:58.386Z,25.39
2017-09-13T17:59:24.770Z,25.34
2017-09-13T18:01:51.205Z,25.28
2017-09-13T18:04:17.640Z,25.19
2017-09-13T18:06:44.075Z,24.98
2017-09-13T18:09:10.439Z,25.02
2017-09-13T18:11:36.843Z,24.98
2017-09-13T18:14:04.199Z,24.85
2017-09-13T18:16:30.604Z,24.65
2017-09-13T18:18:57.071Z,24.52
2017-09-13T18:21:23.504Z,24.55
2017-09-13T18:23:49.938Z,24.45
2017-09-13T18:26:16.375Z,24.40
2017-09-13T18:28:42.808Z,24.45
2017-09-13T18:31:09.858Z,24.43
2017-09-13T18:33:36.279Z,24.32
2017-09-13T18:36:02.728Z,24.23
2017-09-13T18:38:29.161Z,24.28
2017-09-13T18:40:55.597Z,24.19
2017-09-13T18:43:22.027Z,24.10
2017-09-13T18:45:48.374Z,24.09
2017-09-13T18:48:15.619Z,24.10
2017-09-13T18:50:42.053Z,24.04
2017-09-13T18:53:08.488Z,23.99
2017-09-13T18:55:35.025Z,23.84
2017-09-13T18:58:01.457Z,23.76
2017-09-13T19:00:27.896Z,23.72
2017-09-13T19:02:54.331Z,23.69
2017-09-13T19:05:21.585Z,23.70
2017-09-13T19:07:48.023Z,23.69
2017-09-13T19:10:14.403Z,23.69
2017-09-13T19:12:40.889Z,23.66
2017-09-13T19:15:07.326Z,23.61
2017-09-13T19:17:33.761Z,23.56
2017-09-13T19:20:00.200Z,23.52
2017-09-13T19:22:27.346Z,23.49
2017-09-13T19:24:53.781Z,23.43
2017-09-13T19:27:20.222Z,23.34
2017-09-13T19:29:46.677Z,23.23
2017-09-13T19:32:13.087Z,23.11
2017-09-13T19:34:39.524Z,23.02
2017-09-13T19:37:05.959Z,22.98
2017-09-13T19:39:33.107Z,22.99
2017-09-13T19:41:59.501Z,22.93
2017-09-13T19:44:25.977Z,22.87
2017-09-13T19:46:52.413Z,22.75
2017-09-13T19:49:18.852Z,22.67
2017-09-13T19:51:45.282Z,22.73
2017-09-13T19:54:11.731Z,22.84
2017-09-13T19:56:38.888Z,22.93
2017-09-13T19:59:05.303Z,22.92
2017-09-13T20:01:31.759Z,22.85
2017-09-13T20:03:58.173Z,22.84
2017-09-13T20:06:24.604Z,22.82
2017-09-13T20:08:51.043Z,22.80
2017-09-13T20:11:17.478Z,22.73
2017-09-13T20:13:44.629Z,22.68
2017-09-13T20:16:11.063Z,22.60
2017-09-13T20:18:37.499Z,22.44
2017-09-13T20:21:03.939Z,22.41
2017-09-13T20:23:30.371Z,22.30
2017-09-13T20:25:56.804Z,22.28
2017-09-13T20:28:23.239Z,22.28
2017-09-13T20:30:50.493Z,22.28
2017-09-13T20:33:16.927Z,22.26
2017-09-13T20:35:43.381Z,22.21
2017-09-13T20:38:09.806Z,22.17
2017-09-13T20:40:36.232Z,22.06
2017-09-13T20:43:02.666Z,21.89
2017-09-13T20:45:29.101Z,21.86
2017-09-13T20:47:56.253Z,21.81
2017-09-13T20:50:22.639Z,21.71
2017-09-13T20:52:49.123Z,21.53
2017-09-13T20:55:15.558Z,21.34
2017-09-13T20:57:41.993Z,21.29
2017-09-13T21:00:08.419Z,21.15
2017-09-13T21:02:34.836Z,21.23
2017-09-13T21:05:02.015Z,21.22
2017-09-13T21:07:28.404Z,21.16
2017-09-13T21:09:54.885Z,21.24
2017-09-13T21:12:21.307Z,21.27
2017-09-13T21:14:47.754Z,21.21
2017-09-13T21:17:14.188Z,21.16
2017-09-13T21:19:40.624Z,21.06
2017-09-13T21:22:07.753Z,21.24
2017-09-13T21:24:34.197Z,21.12
2017-09-13T21:27:00.639Z,21.07
2017-09-13T21:29:27.081Z,20.98
2017-09-13T21:31:53.515Z,20.82
2017-09-13T21:34:19.950Z,20.60
2017-09-13T21:36:46.386Z,20.76
2017-09-13T21:39:13.652Z,20.71
2017-09-13T21:41:40.012Z,20.63
2017-09-13T21:44:06.356Z,20.58
2017-09-13T21:46:32.829Z,20.59
2017-09-13T21:48:59.273Z,20.66
2017-09-13T21:51:25.916Z,20.74
2017-09-13T21:53:52.351Z,20.69
2017-09-13T21:56:18.786Z,20.59
2017-09-13T21:58:45.323Z,20.65
2017-09-13T22:01:11.758Z,20.67
2017-09-13T22:03:38.910Z,20.53
2017-09-13T22:08:36.597Z,20.16
2017-09-13T22:11:03.137Z,20.15
2017-09-13T22:13:29.570Z,20.34
2017-09-13T22:15:55.999Z,20.49
2017-09-13T22:18:22.435Z,20.57
2017-09-13T22:20:48.818Z,20.50
2017-09-13T22:23:15.304Z,20.12
2017-09-13T22:25:41.841Z,20.22
2017-09-13T22:28:08.277Z,20.15
2017-09-13T22:30:35.429Z,20.28
2017-09-13T22:33:01.863Z,20.13
2017-09-13T22:35:28.297Z,20.07
2017-09-13T22:37:54.733Z,20.16
2017-09-13T22:40:21.168Z,20.15
2017-09-13T22:42:47.603Z,20.19
2017-09-13T22:45:14.038Z,20.11
2017-09-13T22:47:41.087Z,20.17
2017-09-13T22:50:07.522Z,20.11
2017-09-13T22:52:33.957Z,19.95
2017-09-13T22:55:00.375Z,19.95
2017-09-13T22:57:26.817Z,20.01
2017-09-13T22:59:53.261Z,19.95
2017-09-13T23:02:19.699Z,19.79
2017-09-13T23:04:46.849Z,19.64
2017-09-13T23:07:13.282Z,19.65
2017-09-13T23:09:39.739Z,19.62
2017-09-13T23:12:06.261Z,19.55
2017-09-13T23:14:32.640Z,19.43
2017-09-13T23:16:59.127Z,19.35
2017-09-13T23:19:25.526Z,19.66
2017-09-13T23:21:52.814Z,19.72
2017-09-13T23:24:19.249Z,19.73
2017-09-13T23:26:45.781Z,19.66
2017-09-13T23:29:12.221Z,19.46
2017-09-13T23:31:38.674Z,19.30
2017-09-13T23:34:05.091Z,19.16
2017-09-13T23:36:31.644Z,19.16
2017-09-13T23:38:58.574Z,19.22
2017-09-13T23:41:25.010Z,19.23
2017-09-13T23:43:51.445Z,19.33
2017-09-13T23:46:17.881Z,19.20
2017-09-13T23:48:44.263Z,19.18
2017-09-13T23:51:10.749Z,19.30
2017-09-13T23:53:37.185Z,19.30
2017-09-13T23:56:04.438Z,19.34
2017-09-13T23:58:30.876Z,19.39
